NK12 weather

Donnelly's Airport
Wales, New York, United States

Public forecast

Using degrees Fahrenheit for public forecast. Weather courtesy of forecast.io.

Closest aviation weather report (METAR) to Donnelly's Airport

Closest report is Buffalo Niagara International Airport, 13.1 nm (24.3 km) NW. Retrieved 2020/05/31 15:54 UTC (36 minutes ago):

KBUF 311554Z 33008KT 10SM FEW040 BKN050 BKN065 11/02 A3024 RMK AO2 SLP243 T01110017

Closest aviation forecast (TAF) to Donnelly's Airport

Closest forecast is Buffalo Niagara International Airport, 13.1 nm (24.3 km) NW. Retrieved 2020/05/31 12:22 UTC (4 hours ago):

TAF KBUF 311120Z 3112/0112 33009KT P6SM SCT015 BKN040 FM311500 34012KT P6SM SCT050 FM312000 30012KT P6SM SCT050 FM312300 26008KT P6SM SCT070